Time;durP1;ratioP1;P1;durP2;ratioP2;P2;SDS_P1;SDS_P2;PMS_P1;PMS_P2;Temp;Humidity;BMP_temperature;BMP_pressure;BME280_temperature;BME280_humidity;BME280_pressure;Samples;Min_cycle;Max_cycle;Signal;HPM_P1;HPM_P2
2022/05/30 00:01:43;;;;;;;6.43;1.58;;;9.90;99.90;;;;;;4992257;28;20360;-70
2022/05/30 00:04:09;;;;;;;6.35;1.38;;;9.80;99.90;;;;;;4990780;28;20449;-71
2022/05/30 00:06:35;;;;;;;6.17;1.20;;;;;;;;;;4991707;28;20046;-70
2022/05/30 00:09:02;;;;;;;5.20;1.30;;;;;;;;;;4991296;28;20028;-70
2022/05/30 00:11:27;;;;;;;2.65;0.93;;;9.60;99.90;;;;;;4990987;28;20058;-70
2022/05/30 00:13:53;;;;;;;3.97;1.23;;;;;;;;;;4999428;28;20452;-70
2022/05/30 00:16:25;;;;;;;4.40;1.00;;;9.50;99.90;;;;;;4991073;28;20045;-70
2022/05/30 00:18:51;;;;;;;5.97;1.87;;;9.40;99.90;;;;;;4991277;28;20022;-70
2022/05/30 00:21:21;;;;;;;5.83;1.10;;;9.40;99.90;;;;;;4990686;28;20076;-70
2022/05/30 00:23:48;;;;;;;4.60;1.17;;;9.30;99.90;;;;;;4991305;28;20080;-70
2022/05/30 00:26:15;;;;;;;6.90;1.33;;;9.30;99.90;;;;;;4990537;28;20615;-70
2022/05/30 00:28:41;;;;;;;6.83;1.50;;;;;;;;;;4991463;28;20022;-70
2022/05/30 00:31:12;;;;;;;4.77;1.57;;;9.20;99.90;;;;;;4989409;28;20332;-70
2022/05/30 00:33:38;;;;;;;2.53;1.30;;;;;;;;;;4991023;28;20097;-70
2022/05/30 00:36:04;;;;;;;3.00;1.20;;;;;;;;;;4990537;28;20072;-70
2022/05/30 00:38:30;;;;;;;6.70;1.53;;;;;;;;;;4989698;28;20499;-70
2022/05/30 00:40:57;;;;;;;3.87;1.03;;;9.00;99.90;;;;;;4990633;28;20026;-70
2022/05/30 00:43:32;;;;;;;2.20;0.93;;;9.00;99.90;;;;;;4998905;28;20050;-70
2022/05/30 00:46:01;;;;;;;6.63;1.40;;;9.10;99.90;;;;;;5010208;28;20038;-70
2022/05/30 00:48:39;;;;;;;3.63;1.03;;;9.00;99.90;;;;;;5010089;28;20026;-68
2022/05/30 00:51:09;;;;;;;5.77;1.37;;;9.00;99.90;;;;;;5009660;28;20120;-68
2022/05/30 00:53:35;;;;;;;4.83;1.83;;;;;;;;;;5010306;28;20029;-70
2022/05/30 00:56:04;;;;;;;7.70;1.80;;;9.10;99.90;;;;;;5009423;28;20033;-70
2022/05/30 00:58:34;;;;;;;9.57;1.63;;;9.10;99.90;;;;;;5010243;28;20117;-70
2022/05/30 01:01:00;;;;;;;5.93;1.37;;;;;;;;;;5009533;28;20037;-70
2022/05/30 01:08:55;;;;;;;5.17;1.50;;;9.20;99.90;;;;;;5010465;28;20033;-70
2022/05/30 01:11:21;;;;;;;4.70;1.45;;;;;;;;;;5008064;28;20022;-70
2022/05/30 01:13:47;;;;;;;4.23;1.20;;;;;;;;;;4998142;28;20078;-70
2022/05/30 01:16:15;;;;;;;3.60;1.52;;;9.20;99.90;;;;;;4990023;28;20424;-70
2022/05/30 01:18:50;;;;;;;4.43;1.33;;;9.20;99.90;;;;;;4985904;28;20048;-71
2022/05/30 01:21:36;;;;;;;4.90;1.60;;;9.10;99.90;;;;;;4978101;28;20027;-71
2022/05/30 01:24:46;;;;;;;3.03;1.47;;;9.30;99.90;;;;;;4989192;28;20026;-71
2022/05/30 01:27:38;;;;;;;2.50;1.27;;;9.10;99.90;;;;;;4895228;29;20135;-70
2022/05/30 01:30:11;;;;;;;3.37;1.47;;;9.00;99.90;;;;;;4911018;29;20099;-70
2022/05/30 01:32:37;;;;;;;5.33;1.30;;;;;;;;;;4911073;29;20051;-70
2022/05/30 01:35:03;;;;;;;4.23;1.50;;;;;;;;;;4910771;29;20028;-70
2022/05/30 01:37:28;;;;;;;2.43;1.20;;;8.90;99.90;;;;;;4911450;29;20119;-70
2022/05/30 01:39:54;;;;;;;6.67;1.57;;;8.60;99.90;;;;;;4911086;29;20535;-71
2022/05/30 01:42:19;;;;;;;4.57;1.57;;;8.90;99.90;;;;;;4895316;29;20040;-71
2022/05/30 01:44:45;;;;;;;6.97;1.60;;;9.00;99.90;;;;;;4911171;29;20032;-70
2022/05/30 01:47:11;;;;;;;5.87;1.33;;;8.60;99.90;;;;;;4911032;29;20521;-69
2022/05/30 01:49:36;;;;;;;3.87;1.30;;;8.50;99.90;;;;;;4895823;29;20024;-70
2022/05/30 01:52:02;;;;;;;7.10;1.20;;;8.60;99.90;;;;;;4894879;29;20406;-70
2022/05/30 01:54:27;;;;;;;3.93;1.43;;;8.40;99.90;;;;;;4910584;29;20071;-70
2022/05/30 01:56:53;;;;;;;4.43;1.07;;;;;;;;;;4911036;29;20094;-69
2022/05/30 01:59:19;;;;;;;4.80;1.50;;;;;;;;;;4894722;29;20040;-69
2022/05/30 02:01:45;;;;;;;2.97;1.20;;;8.20;99.90;;;;;;4911037;29;20594;-69
2022/05/30 02:04:15;;;;;;;4.23;2.37;;;8.30;99.90;;;;;;4969290;28;20046;-69
2022/05/30 02:06:41;;;;;;;6.80;1.43;;;;;;;;;;4989918;28;20046;-70
2022/05/30 02:09:07;;;;;;;6.13;1.93;;;8.40;99.90;;;;;;4989009;28;20026;-70
2022/05/30 02:11:34;;;;;;;4.53;1.50;;;8.40;99.90;;;;;;4990630;28;20035;-69
2022/05/30 02:14:00;;;;;;;4.07;1.33;;;;;;;;;;4990563;28;20387;-69
2022/05/30 02:19:10;;;;;;;4.03;1.23;;;8.50;99.90;;;;;;4989611;28;20479;-69
2022/05/30 02:21:36;;;;;;;4.37;1.13;;;8.50;99.90;;;;;;4990288;28;20026;-70
2022/05/30 02:24:06;;;;;;;4.97;2.00;;;8.40;99.90;;;;;;4990013;28;20037;-69
2022/05/30 02:26:34;;;;;;;4.97;1.30;;;8.40;99.90;;;;;;4989035;28;20046;-69
2022/05/30 02:29:00;;;;;;;4.73;1.40;;;8.10;99.90;;;;;;4992321;28;20026;-70
2022/05/30 02:31:27;;;;;;;4.77;1.63;;;8.20;99.90;;;;;;4993689;28;20435;-69
2022/05/30 02:36:40;;;;;;;5.35;1.45;;;;;;;;;;4993241;28;20041;-70
2022/05/30 02:39:11;;;;;;;4.77;1.40;;;8.10;99.90;;;;;;4992985;28;20162;-69
2022/05/30 02:41:36;;;;;;;6.53;1.43;;;8.00;99.90;;;;;;4993527;28;20042;-69
2022/05/30 02:44:02;;;;;;;4.13;1.37;;;8.00;99.90;;;;;;4991705;28;20372;-69
2022/05/30 02:46:28;;;;;;;7.17;1.50;;;8.00;99.90;;;;;;4992157;28;20041;-69
2022/05/30 02:48:54;;;;;;;6.40;1.90;;;;;;;;;;4993314;28;20522;-70
2022/05/30 02:51:19;;;;;;;9.90;2.13;;;7.90;99.90;;;;;;4992568;28;20027;-69
2022/05/30 02:53:45;;;;;;;7.10;1.60;;;;;;;;;;4998753;28;20126;-70
2022/05/30 02:56:12;;;;;;;4.93;1.50;;;7.90;99.90;;;;;;5012451;28;20040;-69
2022/05/30 02:58:38;;;;;;;4.33;1.60;;;7.90;99.90;;;;;;5012908;28;20033;-69
2022/05/30 03:01:04;;;;;;;3.83;1.93;;;7.80;99.90;;;;;;5012568;28;20403;-70
2022/05/30 03:03:30;;;;;;;5.07;2.23;;;7.80;99.90;;;;;;5012756;28;20025;-71
2022/05/30 03:05:56;;;;;;;5.47;1.60;;;;;;;;;;5011952;28;20117;-70
2022/05/30 03:08:22;;;;;;;4.83;2.30;;;7.50;99.90;;;;;;5005496;28;20536;-70
2022/05/30 03:10:48;;;;;;;8.93;2.17;;;;;;;;;;4990801;28;20042;-70
2022/05/30 03:13:14;;;;;;;7.73;2.10;;;;;;;;;;4988944;28;20027;-70
2022/05/30 03:15:40;;;;;;;9.00;2.23;;;;;;;;;;4974821;28;20049;-70
2022/05/30 03:18:06;;;;;;;4.27;1.57;;;7.70;99.90;;;;;;4976609;28;20599;-70
2022/05/30 03:20:32;;;;;;;6.30;2.33;;;7.80;99.90;;;;;;4970887;28;20023;-70
2022/05/30 03:22:58;;;;;;;3.13;1.63;;;;;;;;;;4970099;28;20500;-70
2022/05/30 03:25:24;;;;;;;9.27;2.93;;;7.90;99.90;;;;;;4971295;28;20023;-69
2022/05/30 03:27:54;;;;;;;4.50;2.07;;;7.90;99.90;;;;;;4972554;28;20027;-69
2022/05/30 03:30:20;;;;;;;5.63;2.40;;;8.00;99.90;;;;;;4972837;28;20027;-69
2022/05/30 03:32:46;;;;;;;6.63;2.13;;;;;;;;;;4971803;28;20527;-69
2022/05/30 03:35:13;;;;;;;4.80;1.90;;;8.00;99.90;;;;;;4972159;28;20022;-69
2022/05/30 03:37:40;;;;;;;3.80;1.43;;;8.10;99.90;;;;;;4990928;28;20533;-69
2022/05/30 03:40:09;;;;;;;5.80;2.03;;;8.10;99.90;;;;;;4991928;28;20023;-69
2022/05/30 03:42:34;;;;;;;5.23;1.30;;;8.20;99.90;;;;;;4991039;28;20049;-68
2022/05/30 03:45:00;;;;;;;5.87;1.43;;;8.20;99.90;;;;;;4990364;28;20439;-69
2022/05/30 03:47:26;;;;;;;4.73;1.57;;;;;;;;;;4992275;28;20039;-69
2022/05/30 03:50:01;;;;;;;7.50;2.30;;;8.30;99.90;;;;;;4991682;28;20033;-68
2022/05/30 03:52:27;;;;;;;4.77;1.93;;;;;;;;;;4992199;28;20042;-69
2022/05/30 03:54:53;;;;;;;3.77;2.27;;;8.40;99.90;;;;;;4992071;28;20027;-69
2022/05/30 03:57:19;;;;;;;3.53;1.67;;;8.50;99.90;;;;;;4991624;28;20044;-69
2022/05/30 03:59:44;;;;;;;5.33;1.83;;;8.60;99.90;;;;;;4992204;28;20058;-70
2022/05/30 04:02:10;;;;;;;3.20;1.50;;;;;;;;;;4991460;28;20058;-69
2022/05/30 04:04:36;;;;;;;6.50;2.40;;;8.60;99.90;;;;;;4991559;28;20022;-69
2022/05/30 04:07:03;;;;;;;8.03;2.07;;;8.70;99.90;;;;;;4982712;28;20077;-71
2022/05/30 04:09:28;;;;;;;4.73;1.63;;;8.70;99.90;;;;;;4991878;28;20046;-69
2022/05/30 04:11:54;;;;;;;7.07;1.90;;;;;;;;;;4991701;28;20080;-69
2022/05/30 04:14:20;;;;;;;3.90;1.60;;;;;;;;;;4990112;28;20088;-70
2022/05/30 04:16:46;;;;;;;6.30;2.03;;;;;;;;;;4992004;28;20022;-70
2022/05/30 04:19:12;;;;;;;3.90;1.67;;;8.90;99.90;;;;;;4990693;28;20057;-69
2022/05/30 04:21:38;;;;;;;4.17;1.33;;;;;;;;;;4990397;28;20073;-70
2022/05/30 04:24:04;;;;;;;6.10;1.43;;;8.90;99.90;;;;;;4991164;28;20061;-69
2022/05/30 04:26:30;;;;;;;1.83;1.20;;;;;;;;;;4991318;28;20056;-70
2022/05/30 04:28:56;;;;;;;4.33;1.20;;;9.10;99.90;;;;;;4991595;28;20706;-70
2022/05/30 04:31:22;;;;;;;3.90;1.53;;;9.10;99.90;;;;;;4991009;28;20030;-69
2022/05/30 04:33:48;;;;;;;4.30;1.07;;;;;;;;;;4990943;28;20432;-69
2022/05/30 04:36:15;;;;;;;4.70;1.93;;;9.10;99.90;;;;;;4984647;28;20026;-69
2022/05/30 04:38:40;;;;;;;5.43;1.70;;;;;;;;;;4971080;28;20074;-70
2022/05/30 04:41:06;;;;;;;3.57;1.50;;;9.50;99.90;;;;;;4973851;28;20042;-70
2022/05/30 04:43:32;;;;;;;4.13;1.50;;;9.20;99.90;;;;;;4971695;28;20039;-70
2022/05/30 04:46:10;;;;;;;6.00;2.27;;;9.20;99.90;;;;;;4971366;28;20042;-69
2022/05/30 04:48:35;;;;;;;3.90;1.53;;;9.20;99.90;;;;;;4971659;28;20037;-69
2022/05/30 04:51:01;;;;;;;6.80;1.43;;;9.40;99.90;;;;;;4969626;28;20122;-70
2022/05/30 04:53:27;;;;;;;3.97;1.60;;;9.40;99.90;;;;;;4971913;28;20042;-70
2022/05/30 04:55:53;;;;;;;3.53;1.47;;;;;;;;;;4971591;28;20031;-71
2022/05/30 04:58:18;;;;;;;2.83;1.40;;;9.50;99.90;;;;;;4971340;28;20031;-70
2022/05/30 05:00:45;;;;;;;2.67;1.40;;;;;;;;;;4971720;28;20031;-70
2022/05/30 05:03:10;;;;;;;4.50;1.47;;;9.50;99.90;;;;;;4970836;28;20155;-70
2022/05/30 05:05:36;;;;;;;6.47;1.10;;;;;;;;;;4974980;28;20054;-70
2022/05/30 05:08:27;;;;;;;2.70;1.10;;;9.80;99.90;;;;;;5009818;28;20033;-70
2022/05/30 05:11:03;;;;;;;2.00;1.50;;;9.70;99.90;;;;;;5010386;28;20033;-70
2022/05/30 05:13:28;;;;;;;4.70;1.67;;;9.80;99.90;;;;;;5010566;28;20028;-70
2022/05/30 05:15:57;;;;;;;4.03;1.23;;;9.90;99.90;;;;;;5004490;28;20490;-69
2022/05/30 05:18:23;;;;;;;5.80;1.17;;;9.70;99.90;;;;;;4990038;28;20026;-69
2022/05/30 05:20:48;;;;;;;4.70;1.20;;;10.10;99.90;;;;;;4990268;28;20035;-69
2022/05/30 05:23:14;;;;;;;4.13;1.00;;;10.10;99.90;;;;;;4988517;28;20393;-69
2022/05/30 05:25:40;;;;;;;3.97;1.30;;;10.20;99.90;;;;;;4990085;28;20060;-69
2022/05/30 05:28:07;;;;;;;5.27;1.17;;;10.10;99.90;;;;;;4989792;28;20158;-69
2022/05/30 05:30:33;;;;;;;3.70;1.40;;;10.20;99.90;;;;;;4984637;28;20035;-70
2022/05/30 05:32:59;;;;;;;3.30;1.40;;;;;;;;;;4989677;28;20153;-70
2022/05/30 05:35:25;;;;;;;4.17;1.17;;;;;;;;;;4991226;28;20491;-69
2022/05/30 05:37:51;;;;;;;4.60;1.70;;;;;;;;;;4990462;28;20496;-70
2022/05/30 05:40:17;;;;;;;2.30;0.90;;;9.90;99.90;;;;;;4989614;28;20137;-70
2022/05/30 05:42:43;;;;;;;1.77;1.10;;;;;;;;;;4990658;28;20109;-70
2022/05/30 05:45:09;;;;;;;4.15;1.13;;;10.50;99.90;;;;;;4989639;28;20029;-70
2022/05/30 05:47:35;;;;;;;1.67;1.00;;;;;;;;;;4990645;28;20518;-70
2022/05/30 05:50:01;;;;;;;3.08;1.02;;;10.50;99.90;;;;;;4990011;28;20029;-69
2022/05/30 05:52:28;;;;;;;1.50;0.75;;;10.70;99.90;;;;;;4989292;28;20027;-69
2022/05/30 05:54:55;;;;;;;4.63;1.30;;;10.60;99.90;;;;;;4990192;28;20030;-69
2022/05/30 05:57:21;;;;;;;4.40;1.07;;;10.40;99.90;;;;;;4989955;28;20023;-69
2022/05/30 05:59:47;;;;;;;5.00;0.80;;;;;;;;;;4989963;28;20037;-70
2022/05/30 06:02:13;;;;;;;3.88;0.98;;;11.00;99.90;;;;;;4990144;28;20023;-69
2022/05/30 06:04:39;;;;;;;4.72;1.20;;;11.00;99.90;;;;;;4994338;28;20026;-70
2022/05/30 06:07:05;;;;;;;3.55;0.73;;;11.10;99.90;;;;;;4991697;28;20097;-69
2022/05/30 06:09:30;;;;;;;2.95;0.82;;;11.20;99.90;;;;;;4992855;28;20515;-70
2022/05/30 06:12:00;;;;;;;1.15;0.55;;;10.40;99.90;;;;;;4993310;28;20026;-69
2022/05/30 06:14:26;;;;;;;3.35;0.50;;;;;;;;;;4993654;28;20069;-70
2022/05/30 06:16:52;;;;;;;2.65;0.70;;;11.60;99.90;;;;;;4993904;28;20495;-70
2022/05/30 06:19:18;;;;;;;0.93;0.50;;;11.50;99.90;;;;;;4993570;28;20118;-70
2022/05/30 06:21:43;;;;;;;3.45;1.42;;;11.60;99.90;;;;;;4993765;28;20113;-70
2022/05/30 06:24:10;;;;;;;2.08;0.90;;;11.50;99.90;;;;;;4994221;28;20042;-69
2022/05/30 06:26:36;;;;;;;1.85;0.70;;;11.80;99.90;;;;;;5004758;28;20046;-71
2022/05/30 06:29:02;;;;;;;0.47;0.40;;;;;;;;;;4992788;28;20141;-70
2022/05/30 06:31:29;;;;;;;3.22;0.68;;;12.00;99.90;;;;;;4993579;28;20031;-70
2022/05/30 06:33:56;;;;;;;1.30;0.70;;;12.00;99.90;;;;;;4993525;28;20026;-70
2022/05/30 06:36:23;;;;;;;3.65;0.80;;;12.30;99.90;;;;;;4992728;28;20058;-70
2022/05/30 06:38:49;;;;;;;1.17;0.57;;;12.30;99.90;;;;;;4993312;28;20034;-69
2022/05/30 06:41:17;;;;;;;2.10;0.65;;;12.20;99.90;;;;;;4993019;28;20025;-70
2022/05/30 06:43:44;;;;;;;1.02;0.50;;;12.30;99.90;;;;;;5006357;28;20379;-70
2022/05/30 06:46:11;;;;;;;3.97;0.60;;;12.30;99.90;;;;;;5001418;28;20035;-69
2022/05/30 06:48:36;;;;;;;1.13;0.57;;;12.60;99.90;;;;;;4993253;28;20026;-70
2022/05/30 06:51:09;;;;;;;1.58;0.40;;;12.40;99.90;;;;;;4991428;28;20526;-70
2022/05/30 06:53:34;;;;;;;1.98;0.50;;;12.70;99.90;;;;;;4991919;28;20022;-70
2022/05/30 06:56:01;;;;;;;2.22;0.50;;;;;;;;;;4991365;28;20033;-70
2022/05/30 06:58:27;;;;;;;4.72;1.13;;;12.40;99.90;;;;;;4990291;28;20030;-70
2022/05/30 07:00:59;;;;;;;1.52;0.40;;;12.70;99.90;;;;;;4992220;28;20053;-69
2022/05/30 07:03:26;;;;;;;5.63;0.50;;;;;;;;;;4992612;28;20018;-69
2022/05/30 07:05:52;;;;;;;1.98;0.60;;;13.10;99.90;;;;;;4993832;28;20565;-69
2022/05/30 07:08:18;;;;;;;3.00;0.68;;;;;;;;;;4992632;28;20075;-69
2022/05/30 07:10:45;;;;;;;2.95;0.50;;;13.30;99.90;;;;;;4992335;28;20427;-70
2022/05/30 07:13:11;;;;;;;2.58;0.68;;;13.30;99.90;;;;;;4990650;28;20041;-69
2022/05/30 07:15:37;;;;;;;3.50;0.65;;;13.40;99.90;;;;;;5001070;28;20044;-70
2022/05/30 07:18:14;;;;;;;3.05;0.40;;;12.80;98.20;;;;;;4992374;28;20038;-69
2022/05/30 07:20:40;;;;;;;3.15;0.50;;;13.40;99.90;;;;;;4992295;28;20514;-70
2022/05/30 07:23:06;;;;;;;4.82;0.70;;;13.30;99.90;;;;;;4991239;28;20057;-70
2022/05/30 07:25:36;;;;;;;3.97;0.70;;;13.20;99.90;;;;;;4993038;28;20073;-70
2022/05/30 07:28:03;;;;;;;2.50;0.68;;;13.30;99.90;;;;;;4991626;28;20030;-70
2022/05/30 07:30:29;;;;;;;2.15;0.70;;;13.00;99.90;;;;;;4992447;28;20046;-69
2022/05/30 07:32:56;;;;;;;5.97;0.77;;;13.10;99.90;;;;;;4991937;28;20101;-70
2022/05/30 07:35:22;;;;;;;2.53;0.55;;;12.70;99.90;;;;;;4992038;28;20120;-70
2022/05/30 07:37:49;;;;;;;4.25;0.50;;;12.90;99.90;;;;;;4992531;28;20030;-70
2022/05/30 07:40:15;;;;;;;4.18;0.98;;;13.00;99.90;;;;;;4991757;28;20084;-71
2022/05/30 07:42:41;;;;;;;1.95;0.60;;;;;;;;;;4994632;28;20511;-70
2022/05/30 07:45:08;;;;;;;2.85;0.50;;;12.80;99.90;;;;;;4990961;28;20125;-70
2022/05/30 07:47:34;;;;;;;6.20;0.75;;;12.70;99.90;;;;;;4991961;28;20030;-70
2022/05/30 07:50:02;;;;;;;5.90;0.98;;;;;;;;;;4991547;28;20030;-71
2022/05/30 07:52:30;;;;;;;4.13;0.60;;;12.60;99.90;;;;;;4991739;28;20030;-70
2022/05/30 07:54:56;;;;;;;3.33;0.70;;;12.70;99.90;;;;;;4992027;28;20030;-70
2022/05/30 07:57:50;;;;;;;2.75;0.40;;;12.80;98.50;;;;;;4989899;28;20582;-70
2022/05/30 08:00:08;;;;;;;3.08;0.40;;;12.50;99.90;;;;;;4990852;28;20030;-71
2022/05/30 08:02:34;;;;;;;1.85;0.52;;;;;;;;;;4991441;28;20476;-71
2022/05/30 08:05:00;;;;;;;2.08;0.47;;;12.90;99.90;;;;;;4991272;28;20077;-70
2022/05/30 08:07:25;;;;;;;4.15;0.75;;;13.00;99.90;;;;;;4992786;28;20041;-71
2022/05/30 08:09:51;;;;;;;1.98;0.50;;;13.30;99.90;;;;;;4992869;28;20450;-70
2022/05/30 08:12:17;;;;;;;3.33;0.43;;;13.40;99.90;;;;;;4990259;28;20077;-71
2022/05/30 08:14:42;;;;;;;1.77;0.45;;;13.50;99.90;;;;;;4991183;28;20046;-70
2022/05/30 08:17:08;;;;;;;5.25;1.00;;;13.50;99.00;;;;;;4990902;28;20018;-71
2022/05/30 08:19:33;;;;;;;11.60;1.23;;;13.60;99.90;;;;;;4990086;28;20031;-72
2022/05/30 08:22:09;;;;;;;2.05;0.57;;;13.60;99.90;;;;;;4990532;28;20510;-71
2022/05/30 08:24:41;;;;;;;2.15;0.50;;;13.50;95.50;;;;;;4990820;28;20026;-71
2022/05/30 08:27:07;;;;;;;1.55;0.40;;;13.50;98.20;;;;;;4989249;28;20042;-71
2022/05/30 08:29:33;;;;;;;3.53;0.50;;;13.50;97.10;;;;;;4990580;28;20084;-71
2022/05/30 08:31:59;;;;;;;4.88;0.50;;;;;;;;;;5005481;28;20058;-71
2022/05/30 08:34:25;;;;;;;1.55;0.25;;;13.60;98.20;;;;;;4990433;28;20034;-71
2022/05/30 08:36:52;;;;;;;2.88;0.43;;;13.60;99.90;;;;;;4984677;28;20027;-71
2022/05/30 08:42:03;;;;;;;1.92;0.50;;;;;;;;;;4990102;28;20686;-71
2022/05/30 08:44:32;;;;;;;2.45;0.47;;;13.80;99.90;;;;;;4990410;28;20484;-71
2022/05/30 08:47:32;;;;;;;1.30;0.40;;;15.10;95.00;;;;;;4973119;28;20042;-71
2022/05/30 08:50:21;;;;;;;3.15;0.50;;;14.00;99.90;;;;;;4988041;28;20445;-71
2022/05/30 08:53:03;;;;;;;2.67;0.43;;;14.10;99.90;;;;;;4991009;28;20025;-71
2022/05/30 08:56:02;;;;;;;3.35;0.50;;;14.20;99.90;;;;;;4990553;28;20031;-71
2022/05/30 08:58:41;;;;;;;4.47;0.65;;;14.20;99.90;;;;;;4987733;28;20038;-71
2022/05/30 09:01:19;;;;;;;1.13;0.47;;;14.20;99.90;;;;;;4987874;28;20105;-70
2022/05/30 09:04:09;;;;;;;4.15;0.77;;;14.10;99.90;;;;;;4990225;28;20026;-70
2022/05/30 09:07:00;;;;;;;2.00;0.57;;;14.40;99.90;;;;;;4995254;28;20038;-70
2022/05/30 09:09:55;;;;;;;1.85;0.57;;;14.10;99.90;;;;;;4995557;28;20042;-70
2022/05/30 09:12:32;;;;;;;1.50;0.40;;;14.00;99.90;;;;;;5000228;28;20036;-70
2022/05/30 09:15:11;;;;;;;2.53;0.47;;;14.00;99.90;;;;;;4991021;28;20031;-70
2022/05/30 09:17:48;;;;;;;5.32;0.55;;;14.50;99.90;;;;;;4990582;28;20023;-70
2022/05/30 09:20:20;;;;;;;1.88;0.60;;;14.40;99.90;;;;;;4990133;28;20019;-70
2022/05/30 09:22:46;;;;;;;1.65;0.60;;;14.40;99.90;;;;;;4990137;28;20113;-70
2022/05/30 09:28:00;;;;;;;3.00;0.60;;;14.40;99.90;;;;;;4990463;28;20463;-70
2022/05/30 09:30:38;;;;;;;4.93;1.02;;;14.30;99.90;;;;;;5004390;28;20050;-70
2022/05/30 09:33:15;;;;;;;3.13;0.55;;;14.50;99.90;;;;;;5003853;28;20064;-71
2022/05/30 09:35:42;;;;;;;2.58;0.52;;;14.80;99.90;;;;;;4999495;28;20061;-70
2022/05/30 09:38:22;;;;;;;1.77;0.60;;;15.50;99.90;;;;;;5012648;28;20036;-71
2022/05/30 09:40:54;;;;;;;3.60;0.60;;;15.30;93.50;;;;;;5015262;28;20385;-71
2022/05/30 09:43:39;;;;;;;2.75;0.60;;;15.70;94.40;;;;;;4994134;28;20030;-71
2022/05/30 09:46:25;;;;;;;1.73;0.45;;;16.00;93.30;;;;;;4994985;28;20038;-71
2022/05/30 09:49:13;;;;;;;1.45;0.40;;;16.30;93.60;;;;;;4995442;28;20073;-70
2022/05/30 09:51:48;;;;;;;1.20;0.55;;;16.40;93.30;;;;;;4995478;28;20037;-70
2022/05/30 09:54:26;;;;;;;3.00;0.88;;;16.20;92.80;;;;;;4993763;28;20506;-71
2022/05/30 09:57:18;;;;;;;3.70;0.50;;;16.00;92.80;;;;;;4994355;28;20060;-70
2022/05/30 09:59:47;;;;;;;1.58;0.65;;;15.70;92.20;;;;;;4993895;28;20034;-71
2022/05/30 10:02:28;;;;;;;1.98;0.95;;;15.40;93.10;;;;;;4974416;28;20038;-71
2022/05/30 10:05:07;;;;;;;2.88;0.57;;;15.40;92.60;;;;;;4978214;28;20034;-70
2022/05/30 10:07:34;;;;;;;1.92;0.50;;;15.70;99.90;;;;;;4993710;28;20117;-71
2022/05/30 10:10:17;;;;;;;2.72;0.32;;;15.10;93.30;;;;;;4993524;28;20487;-70
2022/05/30 10:12:53;;;;;;;0.97;0.30;;;15.10;92.60;;;;;;4994064;28;20032;-70
2022/05/30 10:15:23;;;;;;;2.72;0.50;;;14.90;99.90;;;;;;4992035;28;20050;-70
2022/05/30 10:17:50;;;;;;;4.22;0.50;;;15.10;93.50;;;;;;4993810;28;20026;-70
2022/05/30 10:20:26;;;;;;;1.83;0.32;;;14.80;99.70;;;;;;4993362;28;20116;-70
2022/05/30 10:28:51;;;;;;;2.72;0.50;;;14.70;99.60;;;;;;4974601;28;20412;-71
2022/05/30 10:31:22;;;;;;;2.25;0.57;;;15.00;99.50;;;;;;4978968;28;20057;-70
2022/05/30 10:34:10;;;;;;;2.20;0.50;;;14.80;99.40;;;;;;4993328;28;20100;-71
2022/05/30 10:37:03;;;;;;;2.97;0.57;;;15.10;99.60;;;;;;4988578;28;20159;-70
2022/05/30 10:39:58;;;;;;;1.53;0.57;;;14.90;99.30;;;;;;5003195;28;20379;-71
2022/05/30 10:42:39;;;;;;;4.28;1.00;;;14.80;99.10;;;;;;5006406;28;20034;-69
2022/05/30 10:45:11;;;;;;;2.72;0.60;;;15.00;99.10;;;;;;4973936;28;20031;-69
2022/05/30 10:47:41;;;;;;;3.58;0.60;;;15.10;98.70;;;;;;4988868;28;20105;-69
2022/05/30 10:50:46;;;;;;;3.03;0.70;;;15.00;98.80;;;;;;4991703;28;20060;-69
2022/05/30 10:53:22;;;;;;;89.40;13.35;;;15.00;98.70;;;;;;4992926;28;20030;-69
2022/05/30 10:55:51;;;;;;;6.40;1.17;;;15.30;98.80;;;;;;4991688;28;20053;-70
2022/05/30 10:58:42;;;;;;;4.78;0.98;;;15.00;98.70;;;;;;4992490;28;20116;-69
2022/05/30 11:01:32;;;;;;;169.77;25.85;;;15.30;98.60;;;;;;4992558;28;20056;-70
2022/05/30 11:04:30;;;;;;;11.52;2.00;;;15.40;98.70;;;;;;4990183;28;20018;-70
2022/05/30 11:07:04;;;;;;;10.40;1.95;;;15.20;98.30;;;;;;4973405;28;20042;-69
2022/05/30 11:09:39;;;;;;;;;;;15.40;92.00;;;;;;4973409;28;20137;-70
2022/05/30 11:12:21;;;;;;;4.90;1.25;;;15.50;98.50;;;;;;4972921;28;19906;-69
2022/05/30 11:15:12;;;;;;;3.88;1.13;;;15.50;91.20;;;;;;5003900;28;20550;-70
2022/05/30 11:17:43;;;;;;;4.25;0.80;;;15.60;91.30;;;;;;5011836;28;20044;-70
2022/05/30 11:20:16;;;;;;;11.20;2.40;;;15.70;91.70;;;;;;5011315;28;20148;-70
2022/05/30 11:22:46;;;;;;;4.68;1.05;;;16.00;98.30;;;;;;4993390;28;20073;-70
2022/05/30 11:25:23;;;;;;;3.35;0.80;;;15.90;91.60;;;;;;5004341;28;20121;-69
2022/05/30 11:28:13;;;;;;;2.53;0.80;;;16.10;91.30;;;;;;4994311;28;20426;-70
2022/05/30 11:30:56;;;;;;;2.45;0.50;;;16.20;90.30;;;;;;4992375;28;20038;-70
2022/05/30 11:33:41;;;;;;;2.10;1.00;;;16.20;90.00;;;;;;4991518;28;20076;-70
2022/05/30 11:36:37;;;;;;;4.00;1.80;;;16.50;97.30;;;;;;4991844;28;20518;-70
2022/05/30 11:39:15;;;;;;;7.07;1.55;;;16.50;89.10;;;;;;4990679;28;20042;-70
2022/05/30 11:41:55;;;;;;;1.58;0.60;;;16.40;88.80;;;;;;4992060;28;20066;-70
2022/05/30 11:44:23;;;;;;;4.70;0.90;;;16.50;88.60;;;;;;4993980;28;20022;-70
2022/05/30 11:47:00;;;;;;;5.35;0.60;;;16.60;89.30;;;;;;4991651;28;20034;-70
2022/05/30 11:49:44;;;;;;;2.97;1.08;;;16.70;89.40;;;;;;4991583;28;20023;-70
2022/05/30 11:52:24;;;;;;;2.30;0.65;;;16.80;87.00;;;;;;4991527;28;20495;-70
2022/05/30 11:55:17;;;;;;;3.30;0.60;;;16.70;88.20;;;;;;4991782;28;20488;-70
2022/05/30 11:58:01;;;;;;;3.63;0.95;;;16.80;88.20;;;;;;4991974;28;20014;-71
2022/05/30 12:00:44;;;;;;;4.25;0.85;;;16.90;88.10;;;;;;4992338;28;20015;-69
2022/05/30 12:03:47;;;;;;;6.75;0.70;;;17.10;86.20;;;;;;4991015;28;20027;-69
2022/05/30 12:06:31;;;;;;;1.63;0.82;;;17.30;84.60;;;;;;4991711;28;20041;-69
2022/05/30 12:09:22;;;;;;;1.85;0.70;;;17.30;86.60;;;;;;4992140;28;20030;-69
2022/05/30 12:12:03;;;;;;;2.92;0.70;;;17.50;84.60;;;;;;4992700;28;20503;-69
2022/05/30 12:15:00;;;;;;;2.58;1.23;;;17.40;85.30;;;;;;4977446;28;20026;-69
2022/05/30 12:17:31;;;;;;;4.25;1.00;;;17.50;83.20;;;;;;4991264;28;20046;-70
2022/05/30 12:25:57;;;;;;;1.75;0.70;;;17.70;81.70;;;;;;4991363;28;20420;-69
2022/05/30 12:28:32;;;;;;;2.22;1.10;;;17.80;82.70;;;;;;4989618;28;20039;-70
2022/05/30 12:31:00;;;;;;;2.72;0.60;;;17.70;81.50;;;;;;4990931;28;20034;-70
2022/05/30 12:33:28;;;;;;;2.95;0.73;;;17.90;82.90;;;;;;4989955;28;20144;-69
2022/05/30 12:36:09;;;;;;;2.50;0.60;;;17.90;82.70;;;;;;4990028;28;20049;-70
2022/05/30 12:38:49;;;;;;;3.85;0.77;;;18.10;80.90;;;;;;4991274;28;20157;-70
2022/05/30 12:41:18;;;;;;;2.38;0.60;;;17.90;82.40;;;;;;4989233;28;20026;-70
2022/05/30 12:43:45;;;;;;;4.13;1.38;;;17.90;82.40;;;;;;5003324;28;20474;-70
2022/05/30 12:46:15;;;;;;;2.28;0.77;;;17.80;81.30;;;;;;4992382;28;20030;-70
2022/05/30 12:48:44;;;;;;;1.00;0.50;;;17.70;82.50;;;;;;4990928;28;20026;-71
2022/05/30 12:51:18;;;;;;;5.00;1.00;;;17.80;82.40;;;;;;4990548;28;20046;-70
2022/05/30 12:53:59;;;;;;;2.45;1.00;;;17.90;82.30;;;;;;4990576;28;20494;-70
2022/05/30 12:56:47;;;;;;;4.85;0.93;;;17.90;80.70;;;;;;4990751;28;20494;-70
2022/05/30 12:59:18;;;;;;;0.77;0.60;;;17.60;80.70;;;;;;4990461;28;20025;-70
2022/05/30 13:01:44;;;;;;;1.55;0.63;;;17.60;81.10;;;;;;4990624;28;20118;-69
2022/05/30 13:04:15;;;;;;;1.05;0.50;;;17.70;82.30;;;;;;4989238;28;20109;-70
2022/05/30 13:06:43;;;;;;;2.17;0.55;;;17.90;82.60;;;;;;4990964;28;20369;-69
2022/05/30 13:09:17;;;;;;;4.72;1.17;;;17.80;82.60;;;;;;4990272;28;20456;-69
2022/05/30 13:11:55;;;;;;;3.03;0.85;;;17.90;82.10;;;;;;4990270;28;20468;-69
2022/05/30 13:14:26;;;;;;;2.95;0.73;;;17.90;82.10;;;;;;4992761;28;20106;-69
2022/05/30 13:16:52;;;;;;;3.90;0.80;;;17.90;81.30;;;;;;4990309;28;20031;-69
2022/05/30 13:19:18;;;;;;;3.65;0.70;;;18.00;81.60;;;;;;4976942;28;20392;-68
2022/05/30 13:21:48;;;;;;;1.38;0.68;;;18.00;81.30;;;;;;4981254;28;20030;-69
2022/05/30 13:24:26;;;;;;;1.80;0.85;;;18.10;81.60;;;;;;4985837;28;20033;-69
2022/05/30 13:26:53;;;;;;;5.25;0.98;;;18.00;81.40;;;;;;4987381;28;20073;-69
2022/05/30 13:29:19;;;;;;;3.13;0.80;;;18.10;80.40;;;;;;4988891;28;20462;-69
2022/05/30 13:31:51;;;;;;;1.60;0.52;;;18.20;79.60;;;;;;4989731;28;20503;-69
2022/05/30 13:34:23;;;;;;;1.58;0.60;;;18.30;80.70;;;;;;4989303;28;20113;-69
2022/05/30 13:36:49;;;;;;;4.97;1.20;;;18.30;80.70;;;;;;4983266;28;20026;-69
2022/05/30 13:39:14;;;;;;;2.42;0.75;;;18.40;80.00;;;;;;4976742;28;20031;-69
2022/05/30 13:41:40;;;;;;;3.63;0.75;;;18.50;79.40;;;;;;4979072;28;20104;-69
2022/05/30 13:44:11;;;;;;;1.50;0.60;;;18.50;79.30;;;;;;5008545;28;20045;-70
2022/05/30 13:46:47;;;;;;;4.90;0.57;;;18.70;79.60;;;;;;4993752;28;20054;-70
2022/05/30 13:49:13;;;;;;;3.35;0.70;;;18.70;77.20;;;;;;4989553;28;20479;-70
2022/05/30 13:51:42;;;;;;;4.35;1.05;;;18.50;77.40;;;;;;4989905;28;20056;-70
2022/05/30 13:54:10;;;;;;;2.30;0.60;;;18.70;79.30;;;;;;4990807;28;20551;-70
2022/05/30 13:56:43;;;;;;;1.25;0.50;;;18.80;78.30;;;;;;4989925;28;20100;-70